<?xml version="1.0" encoding="UTF-8" standalone="no" ?>
<gpx xmlns="http://www.topografix.com/GPX/1/1" xmlns:xsi="http://www.w3.org/2001/XMLSchema-instance" xsi:schemaLocation="http://www.topografix.com/GPX/1/1 http://www.topografix.com/GPX/1/1/gpx.xsd" version="1.1" creator="VisuGPX - https://www.visugpx.com">
  <metadata>
    <name>viaduc de Neuvon</name>
    <desc><![CDATA[Belle randonnée ombragée, conseillée par fortes chaleurs.]]></desc>
  </metadata>
  <trk>
    <name><![CDATA[23 sept. 2014 14:09:59]]></name>
    <cmt><![CDATA[23 sept. 2014 14:09:59]]></cmt>
    <trkseg>
      <trkpt lat="47.33938" lon="4.94218">
        <ele>267</ele>
        <time>2014-09-23T12:10:00Z</time>
      </trkpt>
      <trkpt lat="47.33915" lon="4.9421">
        <ele>253</ele>
        <time>2014-09-23T12:10:02Z</time>
      </trkpt>
      <trkpt lat="47.33939" lon="4.94167">
        <ele>247</ele>
        <time>2014-09-23T12:11:05Z</time>
      </trkpt>
      <trkpt lat="47.33952" lon="4.9415">
        <ele>236</ele>
        <time>2014-09-23T12:11:25Z</time>
      </trkpt>
      <trkpt lat="47.33972" lon="4.94086">
        <ele>235</ele>
        <time>2014-09-23T12:12:04Z</time>
      </trkpt>
      <trkpt lat="47.33981" lon="4.94083">
        <ele>237</ele>
        <time>2014-09-23T12:12:25Z</time>
      </trkpt>
      <trkpt lat="47.34001" lon="4.9409">
        <ele>237</ele>
        <time>2014-09-23T12:12:35Z</time>
      </trkpt>
      <trkpt lat="47.34046" lon="4.94106">
        <ele>240</ele>
        <time>2014-09-23T12:13:14Z</time>
      </trkpt>
      <trkpt lat="47.34078" lon="4.94132">
        <ele>244</ele>
        <time>2014-09-23T12:13:45Z</time>
      </trkpt>
      <trkpt lat="47.34098" lon="4.94147">
        <ele>246</ele>
        <time>2014-09-23T12:14:05Z</time>
      </trkpt>
      <trkpt lat="47.34121" lon="4.94169">
        <ele>243</ele>
        <time>2014-09-23T12:14:31Z</time>
      </trkpt>
      <trkpt lat="47.34136" lon="4.94185">
        <ele>244</ele>
        <time>2014-09-23T12:14:46Z</time>
      </trkpt>
      <trkpt lat="47.34174" lon="4.94214">
        <ele>248</ele>
        <time>2014-09-23T12:15:27Z</time>
      </trkpt>
      <trkpt lat="47.34186" lon="4.94229">
        <ele>249</ele>
        <time>2014-09-23T12:15:40Z</time>
      </trkpt>
      <trkpt lat="47.34209" lon="4.94233">
        <ele>252</ele>
        <time>2014-09-23T12:16:03Z</time>
      </trkpt>
      <trkpt lat="47.34218" lon="4.94222">
        <ele>254</ele>
        <time>2014-09-23T12:16:34Z</time>
      </trkpt>
      <trkpt lat="47.34241" lon="4.94228">
        <ele>257</ele>
        <time>2014-09-23T12:16:51Z</time>
      </trkpt>
      <trkpt lat="47.34279" lon="4.94196">
        <ele>267.2</ele>
        <time>2014-09-23T12:17:22Z</time>
      </trkpt>
      <trkpt lat="47.34317" lon="4.94164">
        <ele>275</ele>
        <time>2014-09-23T12:18:06Z</time>
      </trkpt>
      <trkpt lat="47.34351" lon="4.94133">
        <ele>283</ele>
        <time>2014-09-23T12:18:47Z</time>
      </trkpt>
      <trkpt lat="47.34365" lon="4.94124">
        <ele>285</ele>
        <time>2014-09-23T12:19:03Z</time>
      </trkpt>
      <trkpt lat="47.34398" lon="4.94098">
        <ele>287</ele>
        <time>2014-09-23T12:19:28Z</time>
      </trkpt>
      <trkpt lat="47.34405" lon="4.94077">
        <ele>289</ele>
        <time>2014-09-23T12:19:42Z</time>
      </trkpt>
      <trkpt lat="47.34416" lon="4.94028">
        <ele>289</ele>
        <time>2014-09-23T12:20:14Z</time>
      </trkpt>
      <trkpt lat="47.34433" lon="4.93923">
        <ele>277.1</ele>
        <time>2014-09-23T12:21:16Z</time>
      </trkpt>
      <trkpt lat="47.34453" lon="4.93867">
        <ele>286</ele>
        <time>2014-09-23T12:22:01Z</time>
      </trkpt>
      <trkpt lat="47.34461" lon="4.93841">
        <ele>287</ele>
        <time>2014-09-23T12:22:24Z</time>
      </trkpt>
      <trkpt lat="47.34478" lon="4.93821">
        <ele>289</ele>
        <time>2014-09-23T12:22:48Z</time>
      </trkpt>
      <trkpt lat="47.34509" lon="4.93795">
        <ele>295</ele>
        <time>2014-09-23T12:23:21Z</time>
      </trkpt>
      <trkpt lat="47.3455" lon="4.93773">
        <ele>302</ele>
        <time>2014-09-23T12:24:18Z</time>
      </trkpt>
      <trkpt lat="47.34586" lon="4.93743">
        <ele>307</ele>
        <time>2014-09-23T12:25:04Z</time>
      </trkpt>
      <trkpt lat="47.34608" lon="4.93725">
        <ele>312</ele>
        <time>2014-09-23T12:25:44Z</time>
      </trkpt>
      <trkpt lat="47.34644" lon="4.93702">
        <ele>313</ele>
        <time>2014-09-23T12:26:15Z</time>
      </trkpt>
      <trkpt lat="47.34672" lon="4.93694">
        <ele>316</ele>
        <time>2014-09-23T12:26:43Z</time>
      </trkpt>
      <trkpt lat="47.34703" lon="4.93671">
        <ele>321</ele>
        <time>2014-09-23T12:27:23Z</time>
      </trkpt>
      <trkpt lat="47.34717" lon="4.93656">
        <ele>323</ele>
        <time>2014-09-23T12:27:37Z</time>
      </trkpt>
      <trkpt lat="47.34728" lon="4.9364">
        <ele>325</ele>
        <time>2014-09-23T12:27:51Z</time>
      </trkpt>
      <trkpt lat="47.3474" lon="4.93607">
        <ele>323</ele>
        <time>2014-09-23T12:28:29Z</time>
      </trkpt>
      <trkpt lat="47.34747" lon="4.93581">
        <ele>322</ele>
        <time>2014-09-23T12:28:49Z</time>
      </trkpt>
      <trkpt lat="47.34769" lon="4.9354">
        <ele>322</ele>
        <time>2014-09-23T12:29:32Z</time>
      </trkpt>
      <trkpt lat="47.3477" lon="4.93507">
        <ele>321</ele>
        <time>2014-09-23T12:30:05Z</time>
      </trkpt>
      <trkpt lat="47.34778" lon="4.93481">
        <ele>320</ele>
        <time>2014-09-23T12:30:27Z</time>
      </trkpt>
      <trkpt lat="47.348" lon="4.93433">
        <ele>317</ele>
        <time>2014-09-23T12:31:16Z</time>
      </trkpt>
      <trkpt lat="47.34815" lon="4.93413">
        <ele>314</ele>
        <time>2014-09-23T12:31:34Z</time>
      </trkpt>
      <trkpt lat="47.34834" lon="4.93393">
        <ele>314</ele>
        <time>2014-09-23T12:32:02Z</time>
      </trkpt>
      <trkpt lat="47.34864" lon="4.93364">
        <ele>319</ele>
        <time>2014-09-23T12:32:35Z</time>
      </trkpt>
      <trkpt lat="47.34895" lon="4.93335">
        <ele>321</ele>
        <time>2014-09-23T12:33:14Z</time>
      </trkpt>
      <trkpt lat="47.3492" lon="4.93304">
        <ele>326</ele>
        <time>2014-09-23T12:33:48Z</time>
      </trkpt>
      <trkpt lat="47.34933" lon="4.93292">
        <ele>327</ele>
        <time>2014-09-23T12:34:07Z</time>
      </trkpt>
      <trkpt lat="47.34944" lon="4.93273">
        <ele>327</ele>
        <time>2014-09-23T12:34:47Z</time>
      </trkpt>
      <trkpt lat="47.3497" lon="4.93224">
        <ele>328</ele>
        <time>2014-09-23T12:35:27Z</time>
      </trkpt>
      <trkpt lat="47.3498" lon="4.93194">
        <ele>325</ele>
        <time>2014-09-23T12:35:58Z</time>
      </trkpt>
      <trkpt lat="47.35001" lon="4.93186">
        <ele>323</ele>
        <time>2014-09-23T12:36:40Z</time>
      </trkpt>
      <trkpt lat="47.35015" lon="4.93177">
        <ele>324</ele>
        <time>2014-09-23T12:36:54Z</time>
      </trkpt>
      <trkpt lat="47.35048" lon="4.93163">
        <ele>331</ele>
        <time>2014-09-23T12:38:13Z</time>
      </trkpt>
      <trkpt lat="47.35061" lon="4.93156">
        <ele>336</ele>
        <time>2014-09-23T12:38:44Z</time>
      </trkpt>
      <trkpt lat="47.35087" lon="4.93134">
        <ele>340</ele>
        <time>2014-09-23T12:39:51Z</time>
      </trkpt>
      <trkpt lat="47.35119" lon="4.93113">
        <ele>346</ele>
        <time>2014-09-23T12:40:32Z</time>
      </trkpt>
      <trkpt lat="47.35134" lon="4.93112">
        <ele>349</ele>
        <time>2014-09-23T12:41:37Z</time>
      </trkpt>
      <trkpt lat="47.35147" lon="4.93113">
        <ele>343</ele>
        <time>2014-09-23T12:43:26Z</time>
      </trkpt>
      <trkpt lat="47.35166" lon="4.93099">
        <ele>340</ele>
        <time>2014-09-23T12:44:03Z</time>
      </trkpt>
      <trkpt lat="47.35187" lon="4.93086">
        <ele>336</ele>
        <time>2014-09-23T12:44:34Z</time>
      </trkpt>
      <trkpt lat="47.35202" lon="4.93075">
        <ele>336</ele>
        <time>2014-09-23T12:44:49Z</time>
      </trkpt>
      <trkpt lat="47.35238" lon="4.93034">
        <ele>342</ele>
        <time>2014-09-23T12:45:39Z</time>
      </trkpt>
      <trkpt lat="47.35278" lon="4.92978">
        <ele>349</ele>
        <time>2014-09-23T12:46:27Z</time>
      </trkpt>
      <trkpt lat="47.35301" lon="4.92941">
        <ele>355</ele>
        <time>2014-09-23T12:47:00Z</time>
      </trkpt>
      <trkpt lat="47.35334" lon="4.92889">
        <ele>360</ele>
        <time>2014-09-23T12:47:47Z</time>
      </trkpt>
      <trkpt lat="47.35351" lon="4.92872">
        <ele>363</ele>
        <time>2014-09-23T12:48:11Z</time>
      </trkpt>
      <trkpt lat="47.3538" lon="4.9285">
        <ele>364</ele>
        <time>2014-09-23T12:48:45Z</time>
      </trkpt>
      <trkpt lat="47.35395" lon="4.92841">
        <ele>364</ele>
        <time>2014-09-23T12:49:00Z</time>
      </trkpt>
      <trkpt lat="47.35405" lon="4.92817">
        <ele>365</ele>
        <time>2014-09-23T12:49:25Z</time>
      </trkpt>
      <trkpt lat="47.35413" lon="4.928">
        <ele>362</ele>
        <time>2014-09-23T12:49:56Z</time>
      </trkpt>
      <trkpt lat="47.35438" lon="4.92793">
        <ele>359</ele>
        <time>2014-09-23T12:50:14Z</time>
      </trkpt>
      <trkpt lat="47.35446" lon="4.92783">
        <ele>356</ele>
        <time>2014-09-23T12:50:37Z</time>
      </trkpt>
      <trkpt lat="47.35458" lon="4.92757">
        <ele>357</ele>
        <time>2014-09-23T12:51:15Z</time>
      </trkpt>
      <trkpt lat="47.35468" lon="4.92732">
        <ele>359</ele>
        <time>2014-09-23T12:51:38Z</time>
      </trkpt>
      <trkpt lat="47.35469" lon="4.9272">
        <ele>362</ele>
        <time>2014-09-23T12:52:11Z</time>
      </trkpt>
      <trkpt lat="47.35486" lon="4.92666">
        <ele>365</ele>
        <time>2014-09-23T12:52:55Z</time>
      </trkpt>
      <trkpt lat="47.35495" lon="4.92634">
        <ele>368</ele>
        <time>2014-09-23T12:53:58Z</time>
      </trkpt>
      <trkpt lat="47.35498" lon="4.92591">
        <ele>373</ele>
        <time>2014-09-23T12:54:42Z</time>
      </trkpt>
      <trkpt lat="47.35497" lon="4.92579">
        <ele>375</ele>
        <time>2014-09-23T12:55:10Z</time>
      </trkpt>
      <trkpt lat="47.35505" lon="4.92559">
        <ele>375</ele>
        <time>2014-09-23T12:55:52Z</time>
      </trkpt>
      <trkpt lat="47.35521" lon="4.92532">
        <ele>373</ele>
        <time>2014-09-23T12:56:18Z</time>
      </trkpt>
      <trkpt lat="47.3553" lon="4.9251">
        <ele>374</ele>
        <time>2014-09-23T12:56:40Z</time>
      </trkpt>
      <trkpt lat="47.35541" lon="4.92476">
        <ele>378</ele>
        <time>2014-09-23T12:57:10Z</time>
      </trkpt>
      <trkpt lat="47.35543" lon="4.9247">
        <ele>378</ele>
        <time>2014-09-23T13:00:11Z</time>
      </trkpt>
      <trkpt lat="47.3556" lon="4.92461">
        <ele>377</ele>
        <time>2014-09-23T13:00:31Z</time>
      </trkpt>
      <trkpt lat="47.35582" lon="4.92449">
        <ele>378</ele>
        <time>2014-09-23T13:00:56Z</time>
      </trkpt>
      <trkpt lat="47.35596" lon="4.92436">
        <ele>381</ele>
        <time>2014-09-23T13:01:12Z</time>
      </trkpt>
      <trkpt lat="47.35628" lon="4.92399">
        <ele>385</ele>
        <time>2014-09-23T13:01:55Z</time>
      </trkpt>
      <trkpt lat="47.35655" lon="4.92368">
        <ele>389</ele>
        <time>2014-09-23T13:02:28Z</time>
      </trkpt>
      <trkpt lat="47.35669" lon="4.92356">
        <ele>394</ele>
        <time>2014-09-23T13:02:44Z</time>
      </trkpt>
      <trkpt lat="47.357" lon="4.9232">
        <ele>397</ele>
        <time>2014-09-23T13:03:26Z</time>
      </trkpt>
      <trkpt lat="47.35724" lon="4.92271">
        <ele>395</ele>
        <time>2014-09-23T13:04:01Z</time>
      </trkpt>
      <trkpt lat="47.35751" lon="4.9224">
        <ele>397</ele>
        <time>2014-09-23T13:04:38Z</time>
      </trkpt>
      <trkpt lat="47.35771" lon="4.92218">
        <ele>401</ele>
        <time>2014-09-23T13:05:15Z</time>
      </trkpt>
      <trkpt lat="47.35792" lon="4.92188">
        <ele>401</ele>
        <time>2014-09-23T13:06:01Z</time>
      </trkpt>
      <trkpt lat="47.35812" lon="4.92176">
        <ele>403</ele>
        <time>2014-09-23T13:06:21Z</time>
      </trkpt>
      <trkpt lat="47.3582" lon="4.92171">
        <ele>407</ele>
        <time>2014-09-23T13:06:59Z</time>
      </trkpt>
      <trkpt lat="47.35842" lon="4.92127">
        <ele>410</ele>
        <time>2014-09-23T13:08:05Z</time>
      </trkpt>
      <trkpt lat="47.3587" lon="4.92103">
        <ele>413</ele>
        <time>2014-09-23T13:09:15Z</time>
      </trkpt>
      <trkpt lat="47.35888" lon="4.92096">
        <ele>412</ele>
        <time>2014-09-23T13:09:34Z</time>
      </trkpt>
      <trkpt lat="47.35907" lon="4.92085">
        <ele>413</ele>
        <time>2014-09-23T13:09:52Z</time>
      </trkpt>
      <trkpt lat="47.35922" lon="4.92071">
        <ele>414</ele>
        <time>2014-09-23T13:10:43Z</time>
      </trkpt>
      <trkpt lat="47.35971" lon="4.92033">
        <ele>420</ele>
        <time>2014-09-23T13:12:02Z</time>
      </trkpt>
      <trkpt lat="47.35986" lon="4.92015">
        <ele>428</ele>
        <time>2014-09-23T13:12:42Z</time>
      </trkpt>
      <trkpt lat="47.36014" lon="4.91993">
        <ele>433</ele>
        <time>2014-09-23T13:13:26Z</time>
      </trkpt>
      <trkpt lat="47.36038" lon="4.91987">
        <ele>436</ele>
        <time>2014-09-23T13:14:12Z</time>
      </trkpt>
      <trkpt lat="47.36069" lon="4.91973">
        <ele>443</ele>
        <time>2014-09-23T13:14:36Z</time>
      </trkpt>
      <trkpt lat="47.36084" lon="4.91966">
        <ele>442</ele>
        <time>2014-09-23T13:14:49Z</time>
      </trkpt>
      <trkpt lat="47.36092" lon="4.9196">
        <ele>441</ele>
        <time>2014-09-23T13:15:16Z</time>
      </trkpt>
      <trkpt lat="47.36107" lon="4.91945">
        <ele>441</ele>
        <time>2014-09-23T13:15:41Z</time>
      </trkpt>
      <trkpt lat="47.36137" lon="4.91908">
        <ele>443</ele>
        <time>2014-09-23T13:16:18Z</time>
      </trkpt>
      <trkpt lat="47.36156" lon="4.91893">
        <ele>444</ele>
        <time>2014-09-23T13:16:39Z</time>
      </trkpt>
      <trkpt lat="47.36192" lon="4.91864">
        <ele>450</ele>
        <time>2014-09-23T13:17:14Z</time>
      </trkpt>
      <trkpt lat="47.36209" lon="4.91855">
        <ele>452</ele>
        <time>2014-09-23T13:17:45Z</time>
      </trkpt>
      <trkpt lat="47.36235" lon="4.91832">
        <ele>451</ele>
        <time>2014-09-23T13:18:26Z</time>
      </trkpt>
      <trkpt lat="47.36253" lon="4.91812">
        <ele>451</ele>
        <time>2014-09-23T13:19:06Z</time>
      </trkpt>
      <trkpt lat="47.36246" lon="4.91805">
        <ele>448</ele>
        <time>2014-09-23T13:19:35Z</time>
      </trkpt>
      <trkpt lat="47.36248" lon="4.9178">
        <ele>446</ele>
        <time>2014-09-23T13:20:21Z</time>
      </trkpt>
      <trkpt lat="47.36239" lon="4.91752">
        <ele>444</ele>
        <time>2014-09-23T13:20:49Z</time>
      </trkpt>
      <trkpt lat="47.36216" lon="4.91702">
        <ele>442</ele>
        <time>2014-09-23T13:21:40Z</time>
      </trkpt>
      <trkpt lat="47.36179" lon="4.91676">
        <ele>466.6</ele>
        <time>2014-09-23T13:22:16Z</time>
      </trkpt>
      <trkpt lat="47.3615" lon="4.91671">
        <ele>441</ele>
        <time>2014-09-23T13:22:27Z</time>
      </trkpt>
      <trkpt lat="47.36116" lon="4.91656">
        <ele>439</ele>
        <time>2014-09-23T13:23:03Z</time>
      </trkpt>
      <trkpt lat="47.36096" lon="4.91649">
        <ele>439</ele>
        <time>2014-09-23T13:23:19Z</time>
      </trkpt>
      <trkpt lat="47.36071" lon="4.91611">
        <ele>455.8</ele>
        <time>2014-09-23T13:24:52Z</time>
      </trkpt>
      <trkpt lat="47.36058" lon="4.91585">
        <ele>437</ele>
        <time>2014-09-23T13:25:15Z</time>
      </trkpt>
      <trkpt lat="47.36035" lon="4.91564">
        <ele>434</ele>
        <time>2014-09-23T13:27:01Z</time>
      </trkpt>
      <trkpt lat="47.36031" lon="4.91544">
        <ele>423</ele>
        <time>2014-09-23T13:29:46Z</time>
      </trkpt>
      <trkpt lat="47.3601" lon="4.91519">
        <ele>422</ele>
        <time>2014-09-23T13:30:47Z</time>
      </trkpt>
      <trkpt lat="47.35981" lon="4.91484">
        <ele>417</ele>
        <time>2014-09-23T13:33:53Z</time>
      </trkpt>
      <trkpt lat="47.35949" lon="4.9148">
        <ele>417</ele>
        <time>2014-09-23T13:35:59Z</time>
      </trkpt>
      <trkpt lat="47.35941" lon="4.91484">
        <ele>411</ele>
        <time>2014-09-23T13:36:34Z</time>
      </trkpt>
      <trkpt lat="47.35928" lon="4.91538">
        <ele>427.6</ele>
        <time>2014-09-23T13:39:47Z</time>
      </trkpt>
      <trkpt lat="47.35903" lon="4.91523">
        <ele>423.2</ele>
        <time>2014-09-23T13:40:54Z</time>
      </trkpt>
      <trkpt lat="47.35885" lon="4.91503">
        <ele>407</ele>
        <time>2014-09-23T13:41:47Z</time>
      </trkpt>
      <trkpt lat="47.35855" lon="4.91497">
        <ele>416.5</ele>
        <time>2014-09-23T13:42:51Z</time>
      </trkpt>
      <trkpt lat="47.35803" lon="4.91476">
        <ele>405.5</ele>
        <time>2014-09-23T13:44:13Z</time>
      </trkpt>
      <trkpt lat="47.35776" lon="4.91469">
        <ele>396.5</ele>
        <time>2014-09-23T13:46:27Z</time>
      </trkpt>
      <trkpt lat="47.35741" lon="4.9145">
        <ele>383.2</ele>
        <time>2014-09-23T13:48:37Z</time>
      </trkpt>
      <trkpt lat="47.35714" lon="4.91444">
        <ele>390</ele>
        <time>2014-09-23T13:48:39Z</time>
      </trkpt>
      <trkpt lat="47.35691" lon="4.91426">
        <ele>386</ele>
        <time>2014-09-23T13:49:09Z</time>
      </trkpt>
      <trkpt lat="47.35664" lon="4.91428">
        <ele>359.8</ele>
        <time>2014-09-23T13:50:37Z</time>
      </trkpt>
      <trkpt lat="47.35621" lon="4.91481">
        <ele>355.5</ele>
        <time>2014-09-23T13:54:02Z</time>
      </trkpt>
      <trkpt lat="47.35591" lon="4.91546">
        <ele>352.2</ele>
        <time>2014-09-23T13:54:48Z</time>
      </trkpt>
      <trkpt lat="47.3555" lon="4.91593">
        <ele>350.5</ele>
        <time>2014-09-23T13:55:38Z</time>
      </trkpt>
      <trkpt lat="47.35508" lon="4.91644">
        <ele>346.6</ele>
        <time>2014-09-23T13:56:24Z</time>
      </trkpt>
      <trkpt lat="47.35486" lon="4.9167">
        <ele>342.4</ele>
        <time>2014-09-23T13:57:28Z</time>
      </trkpt>
      <trkpt lat="47.35406" lon="4.91654">
        <ele>338.9</ele>
        <time>2014-09-23T13:58:54Z</time>
      </trkpt>
      <trkpt lat="47.3535" lon="4.91645">
        <ele>337.9</ele>
        <time>2014-09-23T13:59:29Z</time>
      </trkpt>
      <trkpt lat="47.35298" lon="4.9167">
        <ele>334.1</ele>
        <time>2014-09-23T14:00:18Z</time>
      </trkpt>
      <trkpt lat="47.3525" lon="4.91703">
        <ele>330.7</ele>
        <time>2014-09-23T14:01:03Z</time>
      </trkpt>
      <trkpt lat="47.35213" lon="4.91764">
        <ele>327</ele>
        <time>2014-09-23T14:01:47Z</time>
      </trkpt>
      <trkpt lat="47.35205" lon="4.91803">
        <ele>325.2</ele>
        <time>2014-09-23T14:02:29Z</time>
      </trkpt>
      <trkpt lat="47.35166" lon="4.9186">
        <ele>325.2</ele>
        <time>2014-09-23T14:02:51Z</time>
      </trkpt>
      <trkpt lat="47.35118" lon="4.91908">
        <ele>322.4</ele>
        <time>2014-09-23T14:03:42Z</time>
      </trkpt>
      <trkpt lat="47.35069" lon="4.91951">
        <ele>320</ele>
        <time>2014-09-23T14:04:28Z</time>
      </trkpt>
      <trkpt lat="47.35046" lon="4.91974">
        <ele>318.3</ele>
        <time>2014-09-23T14:05:16Z</time>
      </trkpt>
      <trkpt lat="47.35005" lon="4.92015">
        <ele>316</ele>
        <time>2014-09-23T14:05:43Z</time>
      </trkpt>
      <trkpt lat="47.34974" lon="4.92062">
        <ele>314.1</ele>
        <time>2014-09-23T14:06:17Z</time>
      </trkpt>
      <trkpt lat="47.34946" lon="4.92073">
        <ele>383</ele>
        <time>2014-09-23T14:06:33Z</time>
      </trkpt>
      <trkpt lat="47.34893" lon="4.92136">
        <ele>310.2</ele>
        <time>2014-09-23T14:07:38Z</time>
      </trkpt>
      <trkpt lat="47.34835" lon="4.92161">
        <ele>309.3</ele>
        <time>2014-09-23T14:08:06Z</time>
      </trkpt>
      <trkpt lat="47.34802" lon="4.92177">
        <ele>308.2</ele>
        <time>2014-09-23T14:08:43Z</time>
      </trkpt>
      <trkpt lat="47.34755" lon="4.92201">
        <ele>306.8</ele>
        <time>2014-09-23T14:09:24Z</time>
      </trkpt>
      <trkpt lat="47.34724" lon="4.922">
        <ele>306.8</ele>
        <time>2014-09-23T14:09:54Z</time>
      </trkpt>
      <trkpt lat="47.34702" lon="4.92231">
        <ele>337</ele>
        <time>2014-09-23T14:12:09Z</time>
      </trkpt>
      <trkpt lat="47.34696" lon="4.92249">
        <ele>300</ele>
        <time>2014-09-23T14:21:01Z</time>
      </trkpt>
      <trkpt lat="47.34656" lon="4.92268">
        <ele>280</ele>
        <time>2014-09-23T14:21:38Z</time>
      </trkpt>
      <trkpt lat="47.34622" lon="4.92268">
        <ele>274</ele>
        <time>2014-09-23T14:22:15Z</time>
      </trkpt>
      <trkpt lat="47.34606" lon="4.92258">
        <ele>275</ele>
        <time>2014-09-23T14:22:32Z</time>
      </trkpt>
      <trkpt lat="47.34597" lon="4.92206">
        <ele>277</ele>
        <time>2014-09-23T14:23:44Z</time>
      </trkpt>
      <trkpt lat="47.34611" lon="4.92172">
        <ele>276</ele>
        <time>2014-09-23T14:24:10Z</time>
      </trkpt>
      <trkpt lat="47.34613" lon="4.92148">
        <ele>275</ele>
        <time>2014-09-23T14:24:25Z</time>
      </trkpt>
      <trkpt lat="47.34612" lon="4.92119">
        <ele>272</ele>
        <time>2014-09-23T14:24:41Z</time>
      </trkpt>
      <trkpt lat="47.34613" lon="4.92092">
        <ele>272</ele>
        <time>2014-09-23T14:24:53Z</time>
      </trkpt>
      <trkpt lat="47.34613" lon="4.92065">
        <ele>272</ele>
        <time>2014-09-23T14:25:09Z</time>
      </trkpt>
      <trkpt lat="47.3462" lon="4.9204">
        <ele>274</ele>
        <time>2014-09-23T14:25:30Z</time>
      </trkpt>
      <trkpt lat="47.34618" lon="4.92014">
        <ele>275</ele>
        <time>2014-09-23T14:25:46Z</time>
      </trkpt>
      <trkpt lat="47.34618" lon="4.9196">
        <ele>280</ele>
        <time>2014-09-23T14:26:33Z</time>
      </trkpt>
      <trkpt lat="47.34617" lon="4.91936">
        <ele>283</ele>
        <time>2014-09-23T14:26:46Z</time>
      </trkpt>
      <trkpt lat="47.3462" lon="4.91878">
        <ele>285</ele>
        <time>2014-09-23T14:27:16Z</time>
      </trkpt>
      <trkpt lat="47.34618" lon="4.91854">
        <ele>286</ele>
        <time>2014-09-23T14:27:31Z</time>
      </trkpt>
      <trkpt lat="47.34609" lon="4.91834">
        <ele>287</ele>
        <time>2014-09-23T14:27:43Z</time>
      </trkpt>
      <trkpt lat="47.34612" lon="4.91762">
        <ele>321.1</ele>
        <time>2014-09-23T14:28:24Z</time>
      </trkpt>
      <trkpt lat="47.34607" lon="4.91712">
        <ele>322.4</ele>
        <time>2014-09-23T14:29:34Z</time>
      </trkpt>
      <trkpt lat="47.34593" lon="4.91669">
        <ele>323.3</ele>
        <time>2014-09-23T14:30:04Z</time>
      </trkpt>
      <trkpt lat="47.34584" lon="4.91607">
        <ele>326.3</ele>
        <time>2014-09-23T14:30:47Z</time>
      </trkpt>
      <trkpt lat="47.34534" lon="4.91565">
        <ele>291</ele>
        <time>2014-09-23T14:31:38Z</time>
      </trkpt>
      <trkpt lat="47.34517" lon="4.91553">
        <ele>298</ele>
        <time>2014-09-23T14:32:06Z</time>
      </trkpt>
      <trkpt lat="47.34499" lon="4.91551">
        <ele>300</ele>
        <time>2014-09-23T14:32:57Z</time>
      </trkpt>
      <trkpt lat="47.34455" lon="4.91541">
        <ele>306</ele>
        <time>2014-09-23T14:34:23Z</time>
      </trkpt>
      <trkpt lat="47.3443" lon="4.91546">
        <ele>313</ele>
        <time>2014-09-23T14:35:40Z</time>
      </trkpt>
      <trkpt lat="47.34407" lon="4.91541">
        <ele>323</ele>
        <time>2014-09-23T14:36:11Z</time>
      </trkpt>
      <trkpt lat="47.34374" lon="4.91552">
        <ele>326</ele>
        <time>2014-09-23T14:38:07Z</time>
      </trkpt>
      <trkpt lat="47.34326" lon="4.91531">
        <ele>326</ele>
        <time>2014-09-23T14:39:15Z</time>
      </trkpt>
      <trkpt lat="47.34296" lon="4.91523">
        <ele>367.1</ele>
        <time>2014-09-23T14:40:33Z</time>
      </trkpt>
      <trkpt lat="47.34242" lon="4.91537">
        <ele>371.8</ele>
        <time>2014-09-23T14:41:58Z</time>
      </trkpt>
      <trkpt lat="47.34213" lon="4.91561">
        <ele>328</ele>
        <time>2014-09-23T14:42:26Z</time>
      </trkpt>
      <trkpt lat="47.34215" lon="4.91587">
        <ele>334</ele>
        <time>2014-09-23T14:43:47Z</time>
      </trkpt>
      <trkpt lat="47.34199" lon="4.91597">
        <ele>336</ele>
        <time>2014-09-23T14:44:01Z</time>
      </trkpt>
      <trkpt lat="47.34184" lon="4.9159">
        <ele>339</ele>
        <time>2014-09-23T14:44:28Z</time>
      </trkpt>
      <trkpt lat="47.34153" lon="4.91582">
        <ele>344</ele>
        <time>2014-09-23T14:45:29Z</time>
      </trkpt>
      <trkpt lat="47.34135" lon="4.91581">
        <ele>345</ele>
        <time>2014-09-23T14:45:51Z</time>
      </trkpt>
      <trkpt lat="47.3412" lon="4.91586">
        <ele>345</ele>
        <time>2014-09-23T14:46:30Z</time>
      </trkpt>
      <trkpt lat="47.34089" lon="4.91573">
        <ele>349</ele>
        <time>2014-09-23T14:47:17Z</time>
      </trkpt>
      <trkpt lat="47.34065" lon="4.9158">
        <ele>352</ele>
        <time>2014-09-23T14:47:41Z</time>
      </trkpt>
      <trkpt lat="47.34039" lon="4.91564">
        <ele>356</ele>
        <time>2014-09-23T14:48:03Z</time>
      </trkpt>
      <trkpt lat="47.34019" lon="4.91533">
        <ele>359</ele>
        <time>2014-09-23T14:48:49Z</time>
      </trkpt>
      <trkpt lat="47.34001" lon="4.9152">
        <ele>361</ele>
        <time>2014-09-23T14:49:09Z</time>
      </trkpt>
      <trkpt lat="47.33987" lon="4.91505">
        <ele>362</ele>
        <time>2014-09-23T14:49:29Z</time>
      </trkpt>
      <trkpt lat="47.33968" lon="4.91502">
        <ele>362</ele>
        <time>2014-09-23T14:49:41Z</time>
      </trkpt>
      <trkpt lat="47.33937" lon="4.91507">
        <ele>361</ele>
        <time>2014-09-23T14:50:58Z</time>
      </trkpt>
      <trkpt lat="47.33918" lon="4.91503">
        <ele>362</ele>
        <time>2014-09-23T14:51:16Z</time>
      </trkpt>
      <trkpt lat="47.33863" lon="4.91503">
        <ele>362</ele>
        <time>2014-09-23T14:51:54Z</time>
      </trkpt>
      <trkpt lat="47.33814" lon="4.91512">
        <ele>363</ele>
        <time>2014-09-23T14:52:37Z</time>
      </trkpt>
      <trkpt lat="47.33764" lon="4.9152">
        <ele>364</ele>
        <time>2014-09-23T14:53:15Z</time>
      </trkpt>
      <trkpt lat="47.33733" lon="4.91523">
        <ele>365</ele>
        <time>2014-09-23T14:53:40Z</time>
      </trkpt>
      <trkpt lat="47.33695" lon="4.9153">
        <ele>370</ele>
        <time>2014-09-23T14:54:16Z</time>
      </trkpt>
      <trkpt lat="47.33679" lon="4.91535">
        <ele>373</ele>
        <time>2014-09-23T14:54:31Z</time>
      </trkpt>
      <trkpt lat="47.33663" lon="4.91539">
        <ele>374</ele>
        <time>2014-09-23T14:54:44Z</time>
      </trkpt>
      <trkpt lat="47.33614" lon="4.91558">
        <ele>372</ele>
        <time>2014-09-23T14:55:25Z</time>
      </trkpt>
      <trkpt lat="47.33574" lon="4.91587">
        <ele>371</ele>
        <time>2014-09-23T14:56:05Z</time>
      </trkpt>
      <trkpt lat="47.3353" lon="4.91629">
        <ele>364</ele>
        <time>2014-09-23T14:56:54Z</time>
      </trkpt>
      <trkpt lat="47.33527" lon="4.91652">
        <ele>364</ele>
        <time>2014-09-23T14:57:03Z</time>
      </trkpt>
      <trkpt lat="47.33525" lon="4.91676">
        <ele>363</ele>
        <time>2014-09-23T14:57:12Z</time>
      </trkpt>
      <trkpt lat="47.33533" lon="4.91756">
        <ele>356</ele>
        <time>2014-09-23T14:57:49Z</time>
      </trkpt>
      <trkpt lat="47.3353" lon="4.91802">
        <ele>352</ele>
        <time>2014-09-23T14:58:20Z</time>
      </trkpt>
      <trkpt lat="47.33529" lon="4.91875">
        <ele>349</ele>
        <time>2014-09-23T14:59:01Z</time>
      </trkpt>
      <trkpt lat="47.3353" lon="4.91948">
        <ele>349</ele>
        <time>2014-09-23T14:59:39Z</time>
      </trkpt>
      <trkpt lat="47.33532" lon="4.92007">
        <ele>348</ele>
        <time>2014-09-23T15:00:14Z</time>
      </trkpt>
      <trkpt lat="47.33533" lon="4.92078">
        <ele>346</ele>
        <time>2014-09-23T15:00:56Z</time>
      </trkpt>
      <trkpt lat="47.33533" lon="4.92128">
        <ele>346</ele>
        <time>2014-09-23T15:01:26Z</time>
      </trkpt>
      <trkpt lat="47.33536" lon="4.92201">
        <ele>344</ele>
        <time>2014-09-23T15:02:09Z</time>
      </trkpt>
      <trkpt lat="47.33535" lon="4.92251">
        <ele>345</ele>
        <time>2014-09-23T15:02:46Z</time>
      </trkpt>
      <trkpt lat="47.33536" lon="4.92259">
        <ele>347</ele>
        <time>2014-09-23T15:07:13Z</time>
      </trkpt>
      <trkpt lat="47.33535" lon="4.92282">
        <ele>348</ele>
        <time>2014-09-23T15:07:30Z</time>
      </trkpt>
      <trkpt lat="47.33535" lon="4.92295">
        <ele>349</ele>
        <time>2014-09-23T15:07:40Z</time>
      </trkpt>
      <trkpt lat="47.3354" lon="4.92317">
        <ele>351</ele>
        <time>2014-09-23T15:07:59Z</time>
      </trkpt>
      <trkpt lat="47.33543" lon="4.92334">
        <ele>353</ele>
        <time>2014-09-23T15:08:10Z</time>
      </trkpt>
      <trkpt lat="47.33541" lon="4.92356">
        <ele>354</ele>
        <time>2014-09-23T15:08:23Z</time>
      </trkpt>
      <trkpt lat="47.33541" lon="4.92379">
        <ele>355</ele>
        <time>2014-09-23T15:08:37Z</time>
      </trkpt>
      <trkpt lat="47.33537" lon="4.92406">
        <ele>355</ele>
        <time>2014-09-23T15:08:57Z</time>
      </trkpt>
      <trkpt lat="47.33543" lon="4.92438">
        <ele>358</ele>
        <time>2014-09-23T15:09:15Z</time>
      </trkpt>
      <trkpt lat="47.33545" lon="4.92462">
        <ele>358</ele>
        <time>2014-09-23T15:09:27Z</time>
      </trkpt>
      <trkpt lat="47.33542" lon="4.92524">
        <ele>357</ele>
        <time>2014-09-23T15:10:10Z</time>
      </trkpt>
      <trkpt lat="47.33546" lon="4.92591">
        <ele>357</ele>
        <time>2014-09-23T15:10:39Z</time>
      </trkpt>
      <trkpt lat="47.33561" lon="4.92642">
        <ele>357</ele>
        <time>2014-09-23T15:11:13Z</time>
      </trkpt>
      <trkpt lat="47.33557" lon="4.92693">
        <ele>357</ele>
        <time>2014-09-23T15:11:44Z</time>
      </trkpt>
      <trkpt lat="47.33548" lon="4.9275">
        <ele>356</ele>
        <time>2014-09-23T15:12:23Z</time>
      </trkpt>
      <trkpt lat="47.33539" lon="4.92819">
        <ele>354</ele>
        <time>2014-09-23T15:13:02Z</time>
      </trkpt>
      <trkpt lat="47.33535" lon="4.9288">
        <ele>354</ele>
        <time>2014-09-23T15:13:40Z</time>
      </trkpt>
      <trkpt lat="47.33536" lon="4.92903">
        <ele>353</ele>
        <time>2014-09-23T15:13:56Z</time>
      </trkpt>
      <trkpt lat="47.3353" lon="4.92926">
        <ele>355</ele>
        <time>2014-09-23T15:14:14Z</time>
      </trkpt>
      <trkpt lat="47.33514" lon="4.92968">
        <ele>356</ele>
        <time>2014-09-23T15:14:39Z</time>
      </trkpt>
      <trkpt lat="47.335" lon="4.92978">
        <ele>355</ele>
        <time>2014-09-23T15:14:56Z</time>
      </trkpt>
      <trkpt lat="47.33453" lon="4.93021">
        <ele>374.5</ele>
        <time>2014-09-23T15:15:51Z</time>
      </trkpt>
      <trkpt lat="47.33421" lon="4.93045">
        <ele>355</ele>
        <time>2014-09-23T15:16:27Z</time>
      </trkpt>
      <trkpt lat="47.33404" lon="4.93051">
        <ele>355</ele>
        <time>2014-09-23T15:16:39Z</time>
      </trkpt>
      <trkpt lat="47.33379" lon="4.93072">
        <ele>370</ele>
        <time>2014-09-23T15:17:10Z</time>
      </trkpt>
      <trkpt lat="47.33365" lon="4.93091">
        <ele>355</ele>
        <time>2014-09-23T15:17:26Z</time>
      </trkpt>
      <trkpt lat="47.33342" lon="4.9313">
        <ele>349</ele>
        <time>2014-09-23T15:17:59Z</time>
      </trkpt>
      <trkpt lat="47.33327" lon="4.93202">
        <ele>339</ele>
        <time>2014-09-23T15:18:31Z</time>
      </trkpt>
      <trkpt lat="47.33322" lon="4.93241">
        <ele>336</ele>
        <time>2014-09-23T15:19:00Z</time>
      </trkpt>
      <trkpt lat="47.33313" lon="4.93322">
        <ele>352.2</ele>
        <time>2014-09-23T15:19:43Z</time>
      </trkpt>
      <trkpt lat="47.33331" lon="4.93393">
        <ele>346.3</ele>
        <time>2014-09-23T15:20:37Z</time>
      </trkpt>
      <trkpt lat="47.33349" lon="4.93433">
        <ele>342.4</ele>
        <time>2014-09-23T15:21:08Z</time>
      </trkpt>
      <trkpt lat="47.3337" lon="4.93476">
        <ele>338.7</ele>
        <time>2014-09-23T15:21:49Z</time>
      </trkpt>
      <trkpt lat="47.33403" lon="4.9354">
        <ele>332.4</ele>
        <time>2014-09-23T15:22:24Z</time>
      </trkpt>
      <trkpt lat="47.33416" lon="4.93576">
        <ele>328.3</ele>
        <time>2014-09-23T15:23:10Z</time>
      </trkpt>
      <trkpt lat="47.33452" lon="4.93636">
        <ele>324.5</ele>
        <time>2014-09-23T15:23:44Z</time>
      </trkpt>
      <trkpt lat="47.33467" lon="4.9367">
        <ele>322.2</ele>
        <time>2014-09-23T15:24:37Z</time>
      </trkpt>
      <trkpt lat="47.33497" lon="4.93737">
        <ele>316.4</ele>
        <time>2014-09-23T15:25:10Z</time>
      </trkpt>
      <trkpt lat="47.33508" lon="4.93774">
        <ele>311.7</ele>
        <time>2014-09-23T15:26:04Z</time>
      </trkpt>
      <trkpt lat="47.33531" lon="4.93848">
        <ele>302.1</ele>
        <time>2014-09-23T15:26:36Z</time>
      </trkpt>
      <trkpt lat="47.33546" lon="4.93904">
        <ele>294.3</ele>
        <time>2014-09-23T15:27:53Z</time>
      </trkpt>
      <trkpt lat="47.33564" lon="4.93959">
        <ele>288.6</ele>
        <time>2014-09-23T15:29:02Z</time>
      </trkpt>
      <trkpt lat="47.33615" lon="4.94056">
        <ele>283.1</ele>
        <time>2014-09-23T15:30:17Z</time>
      </trkpt>
      <trkpt lat="47.3363" lon="4.94075">
        <ele>332</ele>
        <time>2014-09-23T15:30:19Z</time>
      </trkpt>
      <trkpt lat="47.33634" lon="4.94064">
        <ele>265</ele>
        <time>2014-09-23T15:34:39Z</time>
      </trkpt>
      <trkpt lat="47.33656" lon="4.94117">
        <ele>264</ele>
        <time>2014-09-23T15:36:07Z</time>
      </trkpt>
      <trkpt lat="47.33689" lon="4.94162">
        <ele>250</ele>
        <time>2014-09-23T15:36:51Z</time>
      </trkpt>
      <trkpt lat="47.33698" lon="4.94188">
        <ele>248</ele>
        <time>2014-09-23T15:37:10Z</time>
      </trkpt>
      <trkpt lat="47.33719" lon="4.94221">
        <ele>247</ele>
        <time>2014-09-23T15:37:46Z</time>
      </trkpt>
      <trkpt lat="47.33736" lon="4.94321">
        <ele>259.7</ele>
        <time>2014-09-23T15:38:58Z</time>
      </trkpt>
      <trkpt lat="47.33774" lon="4.94356">
        <ele>261.6</ele>
        <time>2014-09-23T15:39:43Z</time>
      </trkpt>
      <trkpt lat="47.33809" lon="4.94307">
        <ele>260.9</ele>
        <time>2014-09-23T15:40:20Z</time>
      </trkpt>
      <trkpt lat="47.33836" lon="4.94278">
        <ele>242</ele>
        <time>2014-09-23T15:40:44Z</time>
      </trkpt>
      <trkpt lat="47.33865" lon="4.94255">
        <ele>261</ele>
        <time>2014-09-23T15:41:15Z</time>
      </trkpt>
      <trkpt lat="47.33886" lon="4.94246">
        <ele>262.4</ele>
        <time>2014-09-23T15:41:45Z</time>
      </trkpt>
    </trkseg>
  </trk>
</gpx>